Terminal Aerodrome Forecast
Issued by NWS

Home | Current Version | Previous Version | Text Only | Print | Product List | Glossary On
Versions: 1 2 3 4 5 6 7 8 9 10 11 12 13 14
000
FTUS43 KEAX 281400 AAA
TAFMKC
TAF AMD
KMKC 281443Z 2815/0112 10008KT P6SM OVC060
     FM281500 14007KT 2SM -SN OVC015
     FM010000 15005KT P6SM OVC015
     FM010500 17005KT 2SM -SN OVC007=

USA.gov is the U.S. government's official web portal to all federal, state and local government web resources and services.